Aviation Digital Data Service (ADDS)

Output produced by METARs form (2123 UTC 21 May 2022)
found at http://www.aviationweather.gov/metar/data/
 
OJAQ 212100Z 33011KT CAVOK 30/15 Q1008 NOSIG
TAF OJAQ 211700Z 2118/2224 36012KT 5000 HZ NSC 
     TEMPO 2206/2218 35018KT 2000 BLDU
       
OJAM 212100Z 22007KT 4000 DU NSC 27/05 Q1013 NOSIG
TAF COR OJAM 211700Z 2118/2224 11008KT 2000 DU NSC 
     BECMG 2118/2120 29012KT 
     TEMPO 2119/2220 29018KT 1000 BLDU 
     PROB40 
     TEMPO 2119/2218 30015G25KT 0500 DS
       
OJAI 212100Z 28006KT 5000 DU NSC 25/06 Q1013 NOSIG
TAF COR OJAI 211700Z 2118/2224 11010KT 2000 DU NSC 
     BECMG 2118/2120 29014KT 
     TEMPO 2119/2220 29018KT 1000 BLDU 
     TEMPO 2119/2218 30015G25KT 0500 DS